createdAt,value
2023-03-18T00:01:55.257Z,12.33
2023-03-18T00:04:24.422Z,15.00
2023-03-18T00:06:52.484Z,14.57
2023-03-18T00:09:21.244Z,18.17
2023-03-18T00:11:49.352Z,13.30
2023-03-18T00:14:17.639Z,17.57
2023-03-18T00:16:47.214Z,12.00
2023-03-18T00:19:15.514Z,10.40
2023-03-18T00:21:43.690Z,12.80
2023-03-18T00:24:12.444Z,11.67
2023-03-18T00:26:40.715Z,16.57
2023-03-18T00:29:08.978Z,13.00
2023-03-18T00:31:38.435Z,10.30
2023-03-18T00:34:08.094Z,16.03
2023-03-18T00:36:37.493Z,13.93
2023-03-18T00:39:05.888Z,11.37
2023-03-18T00:41:36.479Z,12.87
2023-03-18T00:44:04.888Z,13.10
2023-03-18T00:46:34.730Z,10.07
2023-03-18T00:49:05.215Z,11.17
2023-03-18T00:51:36.475Z,11.07
2023-03-18T00:54:07.514Z,12.40
2023-03-18T00:56:37.722Z,11.87
2023-03-18T00:59:06.894Z,11.03
2023-03-18T01:01:35.879Z,13.70
2023-03-18T01:04:04.537Z,11.73
2023-03-18T01:06:37.566Z,11.10
2023-03-18T01:09:07.217Z,11.20
2023-03-18T01:11:35.703Z,12.80
2023-03-18T01:14:03.956Z,12.47
2023-03-18T01:16:32.293Z,10.70
2023-03-18T01:19:00.530Z,11.47
2023-03-18T01:21:28.763Z,10.90
2023-03-18T01:24:01.752Z,12.70
2023-03-18T01:26:31.442Z,11.83
2023-03-18T01:29:01.184Z,10.83
2023-03-18T01:31:31.273Z,10.27
2023-03-18T01:34:05.144Z,11.13
2023-03-18T01:36:43.414Z,10.13
2023-03-18T01:39:12.990Z,9.70
2023-03-18T01:41:41.457Z,14.73
2023-03-18T01:44:17.702Z,12.17
2023-03-18T01:46:48.532Z,9.37
2023-03-18T01:49:21.723Z,10.90
2023-03-18T01:51:52.803Z,10.30
2023-03-18T01:54:24.858Z,11.83
2023-03-18T01:56:54.170Z,11.27
2023-03-18T01:59:26.479Z,14.73
2023-03-18T02:01:59.237Z,11.60
2023-03-18T02:04:38.519Z,9.63
2023-03-18T02:07:08.809Z,10.83
2023-03-18T02:09:38.358Z,10.77
2023-03-18T02:12:09.614Z,11.63
2023-03-18T02:14:38.363Z,12.57
2023-03-18T02:17:11.816Z,10.67
2023-03-18T02:19:59.325Z,11.00
2023-03-18T02:22:33.313Z,11.00
2023-03-18T02:25:20.695Z,9.97
2023-03-18T02:27:55.528Z,10.90
2023-03-18T02:30:27.792Z,9.73
2023-03-18T02:32:59.410Z,10.33
2023-03-18T02:35:29.234Z,14.63
2023-03-18T02:38:00.481Z,11.30
2023-03-18T02:40:30.906Z,10.43
2023-03-18T02:43:18.385Z,11.00
2023-03-18T02:46:02.533Z,10.20
2023-03-18T02:48:36.715Z,15.53
2023-03-18T02:51:05.741Z,13.50
2023-03-18T02:53:34.369Z,10.67
2023-03-18T02:56:02.915Z,12.03
2023-03-18T02:58:33.590Z,13.00
2023-03-18T03:01:03.647Z,19.60
2023-03-18T03:03:31.926Z,9.60
2023-03-18T03:06:00.138Z,9.07
2023-03-18T03:08:29.356Z,10.40
2023-03-18T03:10:57.635Z,10.77
2023-03-18T03:13:26.224Z,12.23
2023-03-18T03:15:56.438Z,12.97
2023-03-18T03:18:24.624Z,11.20
2023-03-18T03:20:52.782Z,9.77
2023-03-18T03:23:21.851Z,13.27
2023-03-18T03:25:51.134Z,12.13
2023-03-18T03:28:21.408Z,13.00
2023-03-18T03:30:49.653Z,15.43
2023-03-18T03:33:19.266Z,11.43
2023-03-18T03:35:47.395Z,9.20
2023-03-18T03:38:16.217Z,10.70
2023-03-18T03:40:45.398Z,11.80
2023-03-18T03:43:14.629Z,11.50
2023-03-18T03:45:43.809Z,10.10
2023-03-18T03:48:12.973Z,11.57
2023-03-18T03:50:42.736Z,11.27
2023-03-18T03:53:11.566Z,8.70
2023-03-18T03:55:39.799Z,10.53
2023-03-18T03:58:08.024Z,11.93
2023-03-18T04:00:36.585Z,12.30
2023-03-18T04:03:05.225Z,9.63
2023-03-18T04:05:33.741Z,12.20
2023-03-18T04:08:03.532Z,12.97
2023-03-18T04:10:39.514Z,11.03
2023-03-18T04:13:10.697Z,10.67
2023-03-18T04:15:41.233Z,10.90
2023-03-18T04:18:14.837Z,9.63
2023-03-18T04:20:42.992Z,9.93
2023-03-18T04:23:21.329Z,12.07
2023-03-18T04:25:49.446Z,11.63
2023-03-18T04:28:17.876Z,10.43
2023-03-18T04:30:46.049Z,13.27
2023-03-18T04:33:18.001Z,13.47
2023-03-18T04:35:46.761Z,10.07
2023-03-18T04:38:16.541Z,12.77
2023-03-18T04:40:46.391Z,14.00
2023-03-18T04:43:14.640Z,10.77
2023-03-18T04:45:43.747Z,11.63
2023-03-18T04:48:12.189Z,9.07
2023-03-18T04:50:43.597Z,13.97
2023-03-18T04:53:16.826Z,11.53
2023-03-18T04:55:47.523Z,10.93
2023-03-18T04:58:17.274Z,9.57
2023-03-18T05:00:57.215Z,10.97
2023-03-18T05:03:32.020Z,19.27
2023-03-18T05:06:00.307Z,11.83
2023-03-18T05:08:37.805Z,14.57
2023-03-18T05:11:07.390Z,12.40
2023-03-18T05:13:37.638Z,13.77
2023-03-18T05:16:08.959Z,9.60
2023-03-18T05:18:38.081Z,10.37
2023-03-18T05:21:07.793Z,10.20
2023-03-18T05:23:36.766Z,11.43
2023-03-18T05:26:07.206Z,10.43
2023-03-18T05:28:35.833Z,11.60
2023-03-18T05:31:14.681Z,8.77
2023-03-18T05:33:45.108Z,9.13
2023-03-18T05:36:14.963Z,11.43
2023-03-18T05:38:54.498Z,10.07
2023-03-18T05:41:24.936Z,13.07
2023-03-18T05:43:53.790Z,12.10
2023-03-18T05:46:22.027Z,9.90
2023-03-18T05:49:08.902Z,10.30
2023-03-18T05:51:47.429Z,13.23
2023-03-18T05:54:25.536Z,12.10
2023-03-18T05:56:55.521Z,13.00
2023-03-18T05:59:25.327Z,10.53
2023-03-18T06:01:58.176Z,10.40
2023-03-18T06:04:27.870Z,11.67
2023-03-18T06:06:57.111Z,12.17
2023-03-18T06:09:27.376Z,14.93
2023-03-18T06:11:58.660Z,19.90
2023-03-18T06:14:29.470Z,19.57
2023-03-18T06:17:01.202Z,19.20
2023-03-18T06:19:30.816Z,21.83
2023-03-18T06:21:59.481Z,17.00
2023-03-18T06:24:27.656Z,16.53
2023-03-18T06:26:58.909Z,15.03
2023-03-18T06:29:27.244Z,13.57
2023-03-18T06:31:59.287Z,11.03
2023-03-18T06:34:28.483Z,9.47
2023-03-18T06:36:57.724Z,15.10
2023-03-18T06:39:28.608Z,14.13
2023-03-18T06:41:58.449Z,11.23
2023-03-18T06:44:50.792Z,10.00
2023-03-18T06:47:25.146Z,10.60
2023-03-18T06:49:56.831Z,9.97
2023-03-18T06:52:32.041Z,10.77
2023-03-18T06:55:07.217Z,10.07
2023-03-18T06:57:40.676Z,9.90
2023-03-18T07:00:11.228Z,11.30
2023-03-18T07:02:39.884Z,12.83
2023-03-18T07:05:12.866Z,8.03
2023-03-18T07:07:42.624Z,9.93
2023-03-18T07:10:15.495Z,8.33
2023-03-18T07:12:45.137Z,9.50
2023-03-18T07:15:13.676Z,9.20
2023-03-18T07:17:41.908Z,7.40
2023-03-18T07:20:11.636Z,12.00
2023-03-18T07:22:39.798Z,9.47
2023-03-18T07:25:08.874Z,9.63
2023-03-18T07:27:37.848Z,10.03
2023-03-18T07:30:09.704Z,8.43
2023-03-18T07:32:38.592Z,11.20
2023-03-18T07:35:08.134Z,9.27
2023-03-18T07:37:36.314Z,11.27
2023-03-18T07:40:05.738Z,8.07
2023-03-18T07:42:34.564Z,8.47
2023-03-18T07:45:02.680Z,11.03
2023-03-18T07:47:32.167Z,10.50
2023-03-18T07:50:00.249Z,9.60
2023-03-18T07:52:29.458Z,8.30
2023-03-18T07:54:57.828Z,9.85
2023-03-18T07:57:26.136Z,6.75
2023-03-18T07:59:54.677Z,7.90
2023-03-18T08:02:23.668Z,8.10
2023-03-18T08:04:53.441Z,10.70
2023-03-18T08:07:23.060Z,8.82
2023-03-18T08:09:51.440Z,8.40
2023-03-18T08:12:19.887Z,8.55
2023-03-18T08:14:48.381Z,9.57
2023-03-18T08:17:17.879Z,7.35
2023-03-18T08:19:47.165Z,7.47
2023-03-18T08:22:17.054Z,8.07
2023-03-18T08:24:45.852Z,9.48
2023-03-18T08:27:14.053Z,7.20
2023-03-18T08:29:42.217Z,9.38
2023-03-18T08:32:11.320Z,7.85
2023-03-18T08:34:39.553Z,9.18
2023-03-18T08:37:08.428Z,7.97
2023-03-18T08:39:37.958Z,8.52
2023-03-18T08:42:06.925Z,7.22
2023-03-18T08:44:35.012Z,7.90
2023-03-18T08:47:03.185Z,12.13
2023-03-18T08:49:31.335Z,8.60
2023-03-18T08:51:59.916Z,8.52
2023-03-18T08:54:28.046Z,9.27
2023-03-18T08:56:58.058Z,8.32
2023-03-18T08:59:26.579Z,9.82
2023-03-18T09:01:54.693Z,11.88
2023-03-18T09:04:22.864Z,9.77
2023-03-18T09:06:51.074Z,10.02
2023-03-18T09:09:19.247Z,11.00
2023-03-18T09:11:47.916Z,8.95
2023-03-18T09:14:17.502Z,8.20
2023-03-18T09:16:46.179Z,8.85
2023-03-18T09:19:14.415Z,8.05
2023-03-18T09:21:43.241Z,8.60
2023-03-18T09:24:11.669Z,8.18
2023-03-18T09:26:40.075Z,8.57
2023-03-18T09:29:08.246Z,11.93
2023-03-18T09:31:38.768Z,8.25
2023-03-18T09:34:07.056Z,9.13
2023-03-18T09:36:35.242Z,7.95
2023-03-18T09:39:03.949Z,8.77
2023-03-18T09:41:48.367Z,7.35
2023-03-18T09:44:22.861Z,7.70
2023-03-18T09:47:08.269Z,7.40
2023-03-18T09:49:48.303Z,10.18
2023-03-18T09:52:22.885Z,7.95
2023-03-18T09:54:58.896Z,9.57
2023-03-18T09:57:31.263Z,11.77
2023-03-18T10:00:05.271Z,9.00
2023-03-18T10:02:43.617Z,10.52
2023-03-18T10:05:16.830Z,7.95
2023-03-18T10:07:48.496Z,7.25
2023-03-18T10:10:25.115Z,8.75
2023-03-18T10:13:02.360Z,9.63
2023-03-18T10:15:37.146Z,8.45
2023-03-18T10:18:13.836Z,9.15
2023-03-18T10:20:53.850Z,8.93
2023-03-18T10:23:33.146Z,7.15
2023-03-18T10:26:06.903Z,7.45
2023-03-18T10:28:49.252Z,8.07
2023-03-18T10:31:32.795Z,7.75
2023-03-18T10:34:06.775Z,10.68
2023-03-18T10:36:44.401Z,9.90
2023-03-18T10:39:16.550Z,9.05
2023-03-18T10:41:50.075Z,8.25
2023-03-18T10:44:23.772Z,8.13
2023-03-18T10:47:00.049Z,9.43
2023-03-18T10:49:32.983Z,9.00
2023-03-18T10:52:07.831Z,9.80
2023-03-18T10:54:40.863Z,7.88
2023-03-18T10:57:14.273Z,9.23
2023-03-18T10:59:44.754Z,8.60
2023-03-18T11:02:19.724Z,7.07
2023-03-18T11:04:55.577Z,6.78
2023-03-18T11:07:26.764Z,8.82
2023-03-18T11:09:55.894Z,8.18
2023-03-18T11:12:27.185Z,9.63
2023-03-18T11:14:56.506Z,6.95
2023-03-18T11:17:29.327Z,8.10
2023-03-18T11:20:20.976Z,7.75
2023-03-18T11:22:52.276Z,8.10
2023-03-18T11:25:24.180Z,8.88
2023-03-18T11:27:54.186Z,7.85
2023-03-18T11:30:40.722Z,10.00
2023-03-18T11:33:16.210Z,10.35
2023-03-18T11:35:48.566Z,10.25
2023-03-18T11:38:19.544Z,7.30
2023-03-18T11:40:48.267Z,7.85
2023-03-18T11:43:20.233Z,7.68
2023-03-18T11:45:56.260Z,7.57
2023-03-18T11:48:35.773Z,8.98
2023-03-18T11:51:27.191Z,11.05
2023-03-18T11:54:09.602Z,8.75
2023-03-18T11:56:43.741Z,7.60
2023-03-18T11:59:38.798Z,7.22
2023-03-18T12:02:32.266Z,8.23
2023-03-18T12:05:29.574Z,9.40
2023-03-18T12:08:12.045Z,9.85
2023-03-18T12:10:48.300Z,8.88
2023-03-18T12:13:36.279Z,8.13
2023-03-18T12:16:13.382Z,8.77
2023-03-18T12:19:10.165Z,9.88
2023-03-18T12:21:52.851Z,9.07
2023-03-18T12:24:40.932Z,7.55
2023-03-18T12:27:20.166Z,8.60
2023-03-18T12:30:04.695Z,11.05
2023-03-18T12:32:38.061Z,8.15
2023-03-18T12:35:25.104Z,8.38
2023-03-18T12:38:09.866Z,7.53
2023-03-18T12:40:49.779Z,8.10
2023-03-18T12:43:37.947Z,8.63
2023-03-18T12:46:17.480Z,10.48
2023-03-18T12:48:53.322Z,13.65
2023-03-18T12:51:26.728Z,7.95
2023-03-18T12:53:58.456Z,8.10
2023-03-18T12:56:30.552Z,8.70
2023-03-18T12:59:06.532Z,8.20
2023-03-18T13:01:41.320Z,10.23
2023-03-18T13:04:14.705Z,11.20
2023-03-18T13:06:47.060Z,7.57
2023-03-18T13:09:28.731Z,8.18
2023-03-18T13:12:05.416Z,9.65
2023-03-18T13:14:50.351Z,9.05
2023-03-18T13:17:25.715Z,10.20
2023-03-18T13:19:53.893Z,7.88
2023-03-18T13:22:53.519Z,10.77
2023-03-18T13:25:33.627Z,7.22
2023-03-18T13:28:26.968Z,8.15
2023-03-18T13:31:07.451Z,8.05
2023-03-18T13:33:53.249Z,10.82
2023-03-18T13:36:35.997Z,11.45
2023-03-18T13:39:18.364Z,10.27
2023-03-18T13:42:14.020Z,11.20
2023-03-18T13:44:47.297Z,10.02
2023-03-18T13:47:19.509Z,8.45
2023-03-18T13:49:48.000Z,10.68
2023-03-18T13:52:27.999Z,11.95
2023-03-18T13:55:02.507Z,10.88
2023-03-18T13:57:49.782Z,9.50
2023-03-18T14:00:42.042Z,15.48
2023-03-18T14:03:30.019Z,14.68
2023-03-18T14:06:40.690Z,11.60
2023-03-18T14:09:24.927Z,10.75
2023-03-18T14:11:54.102Z,10.73
2023-03-18T14:15:02.685Z,11.23
2023-03-18T14:17:47.352Z,14.00
2023-03-18T14:20:39.881Z,13.80
2023-03-18T14:23:33.332Z,12.93
2023-03-18T14:26:04.556Z,13.18
2023-03-18T14:28:45.474Z,12.50
2023-03-18T14:31:58.018Z,12.65
2023-03-18T14:34:34.058Z,11.02
2023-03-18T14:37:27.717Z,13.80
2023-03-18T14:40:03.869Z,10.73
2023-03-18T14:42:42.172Z,13.40
2023-03-18T14:45:19.508Z,12.80
2023-03-18T14:47:51.068Z,12.10
2023-03-18T14:50:30.604Z,12.77
2023-03-18T14:53:04.171Z,14.77
2023-03-18T14:55:35.547Z,11.75
2023-03-18T14:58:04.561Z,14.63
2023-03-18T15:00:36.482Z,14.38
2023-03-18T15:03:08.376Z,11.10
2023-03-18T15:05:41.220Z,12.18
2023-03-18T15:08:15.824Z,11.82
2023-03-18T15:10:46.512Z,13.45
2023-03-18T15:13:17.999Z,12.73
2023-03-18T15:15:47.125Z,13.83
2023-03-18T15:18:20.840Z,10.63
2023-03-18T15:20:53.698Z,13.30
2023-03-18T15:23:30.148Z,11.90
2023-03-18T15:25:58.497Z,11.80
2023-03-18T15:28:29.881Z,15.17
2023-03-18T15:31:00.588Z,13.00
2023-03-18T15:33:31.849Z,14.30
2023-03-18T15:36:07.043Z,13.57
2023-03-18T15:38:35.410Z,14.60
2023-03-18T15:41:06.702Z,12.53
2023-03-18T15:43:40.789Z,14.43
2023-03-18T15:46:17.258Z,12.80
2023-03-18T15:48:54.226Z,13.70
2023-03-18T15:51:30.160Z,10.80
2023-03-18T15:54:01.608Z,12.90
2023-03-18T15:56:31.557Z,12.10
2023-03-18T15:59:06.913Z,10.87
2023-03-18T16:01:36.345Z,11.03
2023-03-18T16:04:07.725Z,13.67
2023-03-18T16:06:38.750Z,10.10
2023-03-18T16:09:17.286Z,10.73
2023-03-18T16:11:48.570Z,9.90
2023-03-18T16:14:18.892Z,12.87
2023-03-18T16:16:47.160Z,11.73
2023-03-18T16:19:25.142Z,14.40
2023-03-18T16:21:56.440Z,13.87
2023-03-18T16:24:25.239Z,14.27
2023-03-18T16:26:54.380Z,10.37
2023-03-18T16:29:28.944Z,10.67
2023-03-18T16:31:57.213Z,11.37
2023-03-18T16:34:26.022Z,16.47
2023-03-18T16:36:56.217Z,11.27
2023-03-18T16:39:27.601Z,10.50
2023-03-18T16:41:56.479Z,14.43
2023-03-18T16:44:25.012Z,12.20
2023-03-18T16:46:55.708Z,11.63
2023-03-18T16:49:26.006Z,15.27
2023-03-18T16:51:55.553Z,11.47
2023-03-18T16:54:25.830Z,15.40
2023-03-18T16:56:57.536Z,11.27
2023-03-18T16:59:30.817Z,11.30
2023-03-18T17:01:59.351Z,13.63
2023-03-18T17:04:31.637Z,13.50
2023-03-18T17:07:03.696Z,11.20
2023-03-18T17:09:33.987Z,15.13
2023-03-18T17:12:06.021Z,16.97
2023-03-18T17:14:37.668Z,17.27
2023-03-18T17:17:12.903Z,11.10
2023-03-18T17:19:42.001Z,13.70
2023-03-18T17:22:23.131Z,16.17
2023-03-18T17:24:52.413Z,11.80
2023-03-18T17:27:23.874Z,11.50
2023-03-18T17:29:52.814Z,12.03
2023-03-18T17:32:22.278Z,11.80
2023-03-18T17:34:52.939Z,12.20
2023-03-18T17:37:24.743Z,10.87
2023-03-18T17:39:53.718Z,12.07
2023-03-18T17:42:29.809Z,11.43
2023-03-18T17:45:05.731Z,11.63
2023-03-18T17:47:34.369Z,11.57
2023-03-18T17:50:03.841Z,15.20
2023-03-18T17:52:36.078Z,13.90
2023-03-18T17:55:15.273Z,17.30
2023-03-18T17:57:45.470Z,12.70
2023-03-18T18:00:21.890Z,14.50
2023-03-18T18:02:52.655Z,19.20
2023-03-18T18:05:24.341Z,12.10
2023-03-18T18:07:54.868Z,11.93
2023-03-18T18:10:24.957Z,14.57
2023-03-18T18:12:55.871Z,11.53
2023-03-18T18:15:28.368Z,13.03
2023-03-18T18:17:57.131Z,14.10
2023-03-18T18:20:26.334Z,13.07
2023-03-18T18:22:58.205Z,13.63
2023-03-18T18:25:31.368Z,14.20
2023-03-18T18:28:01.872Z,11.27
2023-03-18T18:30:33.148Z,10.33
2023-03-18T18:33:03.393Z,14.07
2023-03-18T18:35:33.358Z,19.30
2023-03-18T18:38:04.737Z,16.77
2023-03-18T18:40:35.372Z,17.83
2023-03-18T18:43:05.888Z,13.87
2023-03-18T18:45:35.828Z,18.90
2023-03-18T18:48:11.909Z,19.47
2023-03-18T18:50:41.850Z,24.23
2023-03-18T18:53:19.831Z,23.57
2023-03-18T18:55:49.992Z,18.23
2023-03-18T18:58:20.970Z,18.53
2023-03-18T19:00:52.316Z,17.83
2023-03-18T19:03:23.684Z,18.63
2023-03-18T19:05:55.197Z,17.73
2023-03-18T19:08:30.675Z,18.07
2023-03-18T19:11:01.870Z,16.50
2023-03-18T19:13:33.987Z,12.13
2023-03-18T19:16:07.407Z,12.60
2023-03-18T19:18:41.067Z,13.87
2023-03-18T19:21:11.650Z,14.67
2023-03-18T19:23:42.176Z,14.20
2023-03-18T19:26:15.762Z,20.07
2023-03-18T19:28:59.596Z,16.50
2023-03-18T19:31:35.554Z,16.73
2023-03-18T19:34:17.130Z,16.17
2023-03-18T19:36:49.833Z,16.07
2023-03-18T19:39:22.872Z,18.60
2023-03-18T19:41:53.755Z,13.87
2023-03-18T19:44:25.703Z,15.23
2023-03-18T19:46:57.633Z,14.33
2023-03-18T19:49:33.446Z,17.73
2023-03-18T19:52:04.874Z,12.33
2023-03-18T19:54:37.616Z,17.73
2023-03-18T19:57:14.640Z,15.03
2023-03-18T19:59:45.784Z,15.77
2023-03-18T20:02:25.213Z,16.53
2023-03-18T20:04:59.444Z,14.97
2023-03-18T20:07:32.172Z,10.37
2023-03-18T20:10:03.757Z,15.63
2023-03-18T20:12:38.067Z,16.10
2023-03-18T20:15:09.069Z,14.40
2023-03-18T20:17:42.884Z,17.27
2023-03-18T20:20:18.589Z,17.07
2023-03-18T20:22:49.630Z,13.93
2023-03-18T20:25:25.039Z,14.33
2023-03-18T20:27:57.245Z,15.03
2023-03-18T20:30:30.763Z,16.40
2023-03-18T20:33:04.728Z,19.27
2023-03-18T20:35:37.128Z,15.17
2023-03-18T20:38:14.978Z,17.43
2023-03-18T20:40:49.611Z,16.90
2023-03-18T20:43:21.665Z,20.83
2023-03-18T20:45:52.579Z,13.87
2023-03-18T20:48:23.002Z,18.70
2023-03-18T20:51:03.161Z,18.87
2023-03-18T20:53:33.297Z,16.63
2023-03-18T20:56:05.835Z,20.87
2023-03-18T20:58:34.928Z,14.93
2023-03-18T21:01:05.027Z,17.20
2023-03-18T21:03:37.626Z,15.40
2023-03-18T21:06:06.936Z,14.63
2023-03-18T21:08:36.595Z,14.83
2023-03-18T21:11:18.541Z,15.43
2023-03-18T21:13:49.685Z,26.73
2023-03-18T21:16:18.885Z,15.23
2023-03-18T21:18:49.957Z,20.03
2023-03-18T21:21:24.847Z,19.13
2023-03-18T21:23:55.174Z,16.10
2023-03-18T21:26:25.909Z,15.97
2023-03-18T21:28:55.348Z,13.70
2023-03-18T21:31:31.470Z,17.67
2023-03-18T21:34:01.993Z,18.57
2023-03-18T21:36:32.503Z,22.53
2023-03-18T21:39:01.051Z,17.10
2023-03-18T21:41:34.408Z,21.10
2023-03-18T21:44:04.482Z,17.03
2023-03-18T21:46:33.321Z,19.90
2023-03-18T21:49:02.262Z,17.80
2023-03-18T21:51:39.258Z,15.27
2023-03-18T21:54:18.395Z,14.07
2023-03-18T21:56:51.205Z,16.63
2023-03-18T21:59:20.192Z,17.17
2023-03-18T22:01:48.891Z,17.17
2023-03-18T22:04:17.314Z,16.17
2023-03-18T22:06:45.569Z,16.53
2023-03-18T22:09:13.735Z,19.17
2023-03-18T22:11:41.938Z,19.77
2023-03-18T22:14:15.115Z,21.43
2023-03-18T22:16:43.269Z,17.53
2023-03-18T22:19:11.375Z,18.70
2023-03-18T22:21:39.518Z,19.97
2023-03-18T22:24:14.171Z,21.77
2023-03-18T22:26:42.299Z,23.17
2023-03-18T22:29:10.524Z,18.27
2023-03-18T22:31:41.780Z,21.57
2023-03-18T22:34:22.711Z,23.93
2023-03-18T22:36:50.924Z,21.20
2023-03-18T22:39:19.008Z,23.07
2023-03-18T22:41:49.898Z,17.53
2023-03-18T22:44:23.603Z,20.37
2023-03-18T22:46:53.294Z,19.53
2023-03-18T22:49:21.447Z,21.00
2023-03-18T22:51:49.560Z,21.17
2023-03-18T22:54:19.566Z,18.63
2023-03-18T22:56:48.058Z,19.07
2023-03-18T22:59:16.250Z,23.23
2023-03-18T23:01:44.825Z,19.97
2023-03-18T23:04:14.491Z,21.80
2023-03-18T23:06:43.101Z,18.30
2023-03-18T23:09:11.258Z,19.73
2023-03-18T23:11:39.414Z,22.53
2023-03-18T23:14:08.725Z,21.80
2023-03-18T23:16:36.842Z,20.20
2023-03-18T23:19:05.003Z,18.70
2023-03-18T23:21:35.433Z,17.50
2023-03-18T23:24:03.582Z,17.20
2023-03-18T23:26:31.635Z,18.53
2023-03-18T23:28:59.725Z,19.47
2023-03-18T23:31:27.864Z,17.80
2023-03-18T23:33:55.936Z,19.47
2023-03-18T23:36:24.070Z,16.07
2023-03-18T23:38:53.605Z,16.53
2023-03-18T23:41:21.684Z,19.33
2023-03-18T23:43:49.832Z,16.10
2023-03-18T23:46:17.980Z,24.47
2023-03-18T23:48:46.093Z,15.00
2023-03-18T23:51:14.144Z,14.40
2023-03-18T23:53:42.237Z,19.37
2023-03-18T23:56:11.922Z,12.70
2023-03-18T23:58:40.085Z,15.87
